createdAt,value
2017-11-29T00:01:54.664Z,73.68
2017-11-29T00:04:22.146Z,74.43
2017-11-29T00:06:52.949Z,75.20
2017-11-29T00:09:20.405Z,76.49
2017-11-29T00:11:47.900Z,76.11
2017-11-29T00:14:15.706Z,76.95
2017-11-29T00:16:43.423Z,77.23
2017-11-29T00:19:10.934Z,77.79
2017-11-29T00:21:38.445Z,78.02
2017-11-29T00:24:05.905Z,78.38
2017-11-29T00:26:34.363Z,78.78
2017-11-29T00:29:01.825Z,79.18
2017-11-29T00:31:29.333Z,79.51
2017-11-29T00:33:56.785Z,79.81
2017-11-29T00:36:24.294Z,80.27
2017-11-29T00:38:51.799Z,80.41
2017-11-29T00:41:19.277Z,80.17
2017-11-29T00:43:46.744Z,80.01
2017-11-29T00:46:14.967Z,80.19
2017-11-29T00:48:42.480Z,80.28
2017-11-29T00:51:09.974Z,80.39
2017-11-29T00:53:37.471Z,80.02
2017-11-29T00:56:04.931Z,80.33
2017-11-29T00:58:33.462Z,80.15
2017-11-29T01:01:00.931Z,80.07
2017-11-29T01:03:28.381Z,79.50
2017-11-29T01:05:55.856Z,79.38
2017-11-29T01:08:23.316Z,79.84
2017-11-29T01:10:50.894Z,79.91
2017-11-29T01:13:18.394Z,79.76
2017-11-29T01:15:45.877Z,80.28
2017-11-29T01:18:13.371Z,79.92
2017-11-29T01:20:40.830Z,80.52
2017-11-29T01:23:08.297Z,80.50
2017-11-29T01:25:35.770Z,79.88
2017-11-29T01:28:03.264Z,79.85
2017-11-29T01:30:30.773Z,79.75
2017-11-29T01:32:58.223Z,79.88
2017-11-29T01:35:25.691Z,80.76
2017-11-29T01:37:53.176Z,81.21
2017-11-29T01:40:20.632Z,80.92
2017-11-29T01:42:48.206Z,80.54
2017-11-29T01:45:15.769Z,80.81
2017-11-29T01:47:43.256Z,80.37
2017-11-29T01:50:10.809Z,80.29
2017-11-29T01:52:38.604Z,79.66
2017-11-29T01:55:06.080Z,80.60
2017-11-29T01:57:33.596Z,80.66
2017-11-29T02:00:01.127Z,79.94
2017-11-29T02:02:28.608Z,78.55
2017-11-29T02:04:56.116Z,78.08
2017-11-29T02:07:23.581Z,79.18
2017-11-29T02:09:51.036Z,80.07
2017-11-29T02:12:18.557Z,80.09
2017-11-29T02:14:46.028Z,79.55
2017-11-29T02:17:13.515Z,78.99
2017-11-29T02:19:40.989Z,79.59
2017-11-29T02:22:08.445Z,79.91
2017-11-29T02:24:35.973Z,80.29
2017-11-29T02:27:03.443Z,80.74
2017-11-29T02:29:30.904Z,81.07
2017-11-29T02:31:58.385Z,80.85
2017-11-29T02:34:25.917Z,81.18
2017-11-29T02:36:53.420Z,81.74
2017-11-29T02:39:20.893Z,81.84
2017-11-29T02:41:59.955Z,81.49
2017-11-29T02:44:27.435Z,81.84
2017-11-29T02:46:54.888Z,82.09
2017-11-29T02:49:22.371Z,82.81
2017-11-29T02:51:49.824Z,83.24
2017-11-29T02:54:17.285Z,83.57
2017-11-29T02:56:44.770Z,83.58
2017-11-29T02:59:12.251Z,83.60
2017-11-29T03:01:39.738Z,83.78
2017-11-29T03:04:07.235Z,83.27
2017-11-29T03:06:35.766Z,83.50
2017-11-29T03:09:03.268Z,83.67
2017-11-29T03:11:30.724Z,83.71
2017-11-29T03:13:58.184Z,83.68
2017-11-29T03:16:25.648Z,83.74
2017-11-29T03:18:53.761Z,83.36
2017-11-29T03:21:21.254Z,83.60
2017-11-29T03:23:48.730Z,83.96
2017-11-29T03:26:16.969Z,84.16
2017-11-29T03:28:44.441Z,84.37
2017-11-29T03:31:11.918Z,84.53
2017-11-29T03:33:39.408Z,84.69
2017-11-29T03:36:07.513Z,85.04
2017-11-29T03:38:36.310Z,84.72
2017-11-29T03:41:03.773Z,84.68
2017-11-29T03:43:31.233Z,85.12
2017-11-29T03:45:58.707Z,85.23
2017-11-29T03:48:26.294Z,85.47
2017-11-29T03:50:53.764Z,85.65
2017-11-29T03:53:21.241Z,85.16
2017-11-29T03:55:48.692Z,85.18
2017-11-29T03:58:16.488Z,84.72
2017-11-29T04:00:43.972Z,84.69
2017-11-29T04:03:11.441Z,85.18
2017-11-29T04:05:39.408Z,85.11
2017-11-29T04:08:06.894Z,85.26
2017-11-29T04:10:35.041Z,85.37
2017-11-29T04:13:02.558Z,85.15
2017-11-29T04:15:30.034Z,85.02
2017-11-29T04:17:57.512Z,85.14
2017-11-29T04:20:25.025Z,84.44
2017-11-29T04:22:52.488Z,84.90
2017-11-29T04:25:19.990Z,84.84
2017-11-29T04:27:47.463Z,84.97
2017-11-29T04:30:14.931Z,85.13
2017-11-29T04:32:43.019Z,85.10
2017-11-29T04:35:10.513Z,85.21
2017-11-29T04:37:37.973Z,85.33
2017-11-29T04:40:05.444Z,85.12
2017-11-29T04:42:33.363Z,85.15
2017-11-29T04:45:00.846Z,85.14
2017-11-29T04:47:28.547Z,85.26
2017-11-29T04:49:56.010Z,84.94
2017-11-29T04:52:23.489Z,85.09
2017-11-29T04:54:51.108Z,84.96
2017-11-29T04:57:18.613Z,85.14
2017-11-29T04:59:46.145Z,85.59
2017-11-29T05:02:13.639Z,85.83
2017-11-29T05:04:41.104Z,85.47
2017-11-29T05:07:08.625Z,85.68
2017-11-29T05:09:36.101Z,85.85
2017-11-29T05:12:03.612Z,85.80
2017-11-29T05:14:31.100Z,86.33
2017-11-29T05:16:58.580Z,86.77
2017-11-29T05:19:26.077Z,86.60
2017-11-29T05:21:53.542Z,86.92
2017-11-29T05:24:21.025Z,87.25
2017-11-29T05:26:48.511Z,87.44
2017-11-29T05:29:16.030Z,87.57
2017-11-29T05:31:43.542Z,87.51
2017-11-29T05:34:11.025Z,87.46
2017-11-29T05:36:38.546Z,87.48
2017-11-29T05:39:06.027Z,87.71
2017-11-29T05:41:33.502Z,87.86
2017-11-29T05:44:00.999Z,87.58
2017-11-29T05:46:28.531Z,87.56
2017-11-29T05:48:56.021Z,87.54
2017-11-29T05:51:23.571Z,87.64
2017-11-29T05:53:51.084Z,87.79
2017-11-29T05:56:18.680Z,87.87
2017-11-29T05:58:46.128Z,87.82
2017-11-29T06:01:13.608Z,87.65
2017-11-29T06:03:41.264Z,87.35
2017-11-29T06:06:08.731Z,87.42
2017-11-29T06:08:37.890Z,87.42
2017-11-29T06:11:05.391Z,87.49
2017-11-29T06:13:32.851Z,88.02
2017-11-29T06:16:00.304Z,88.31
2017-11-29T06:18:28.562Z,88.68
2017-11-29T06:20:56.068Z,88.61
2017-11-29T06:23:23.576Z,88.56
2017-11-29T06:25:51.045Z,88.58
2017-11-29T06:28:18.538Z,88.54
2017-11-29T06:30:48.367Z,88.61
2017-11-29T06:33:16.785Z,88.72
2017-11-29T06:35:44.241Z,88.86
2017-11-29T06:38:11.821Z,88.98
2017-11-29T06:40:39.309Z,89.06
2017-11-29T06:43:06.772Z,88.74
2017-11-29T06:45:34.265Z,88.56
2017-11-29T06:48:01.805Z,88.73
2017-11-29T06:50:29.274Z,88.98
2017-11-29T06:52:56.795Z,89.16
2017-11-29T06:55:24.266Z,89.18
2017-11-29T06:57:51.771Z,89.29
2017-11-29T07:00:19.289Z,89.17
2017-11-29T07:02:46.797Z,89.23
2017-11-29T07:05:14.426Z,89.27
2017-11-29T07:07:41.966Z,88.86
2017-11-29T07:10:09.445Z,88.66
2017-11-29T07:12:36.967Z,88.72
2017-11-29T07:15:04.445Z,88.63
2017-11-29T07:17:32.003Z,88.62
2017-11-29T07:19:59.465Z,88.38
2017-11-29T07:22:26.948Z,88.39
2017-11-29T07:24:54.405Z,88.36
2017-11-29T07:27:21.863Z,88.09
2017-11-29T07:29:49.372Z,88.00
2017-11-29T07:32:17.561Z,87.23
2017-11-29T07:34:45.036Z,87.17
2017-11-29T07:37:12.515Z,87.00
2017-11-29T07:39:39.966Z,86.84
2017-11-29T07:42:07.440Z,87.01
2017-11-29T07:44:35.049Z,87.03
2017-11-29T07:47:02.541Z,86.88
2017-11-29T07:49:30.196Z,86.72
2017-11-29T07:51:57.936Z,86.40
2017-11-29T07:54:25.549Z,85.91
2017-11-29T07:56:53.010Z,85.71
2017-11-29T07:59:20.488Z,84.64
2017-11-29T08:01:47.973Z,83.97
2017-11-29T08:04:15.766Z,84.06
2017-11-29T08:06:43.491Z,83.78
2017-11-29T08:09:10.960Z,84.39
2017-11-29T08:11:38.694Z,84.03
2017-11-29T08:14:06.249Z,84.00
2017-11-29T08:16:33.914Z,83.32
2017-11-29T08:19:01.375Z,82.70
2017-11-29T08:21:28.846Z,82.68
2017-11-29T08:23:56.309Z,82.55
2017-11-29T08:26:23.758Z,82.17
2017-11-29T08:28:51.271Z,81.45
2017-11-29T08:31:18.745Z,82.03
2017-11-29T08:33:46.222Z,80.96
2017-11-29T08:36:13.711Z,81.50
2017-11-29T08:38:41.342Z,81.68
2017-11-29T08:41:08.826Z,81.88
2017-11-29T08:43:36.308Z,81.13
2017-11-29T08:46:03.814Z,80.99
2017-11-29T08:48:31.640Z,80.35
2017-11-29T08:50:59.115Z,80.64
2017-11-29T08:53:26.625Z,80.80
2017-11-29T08:55:54.109Z,81.20
2017-11-29T08:58:21.591Z,80.78
2017-11-29T09:00:49.610Z,81.14
2017-11-29T09:03:17.989Z,81.75
2017-11-29T09:05:45.477Z,81.19
2017-11-29T09:08:12.938Z,81.38
2017-11-29T09:10:40.445Z,81.53
2017-11-29T09:13:08.140Z,81.98
2017-11-29T09:15:35.605Z,83.04
2017-11-29T09:18:03.144Z,83.34
2017-11-29T09:20:30.605Z,83.13
2017-11-29T09:22:58.897Z,82.83
2017-11-29T09:25:26.411Z,82.37
2017-11-29T09:27:53.883Z,82.25
2017-11-29T09:30:21.376Z,82.19
2017-11-29T09:32:48.843Z,83.05
2017-11-29T09:35:16.291Z,82.94
2017-11-29T09:37:43.812Z,82.76
2017-11-29T09:40:11.417Z,83.02
2017-11-29T09:42:38.889Z,83.17
2017-11-29T09:45:06.405Z,82.97
2017-11-29T09:47:33.937Z,82.08
2017-11-29T09:50:01.454Z,81.47
2017-11-29T09:52:28.957Z,82.08
2017-11-29T09:54:56.481Z,81.94
2017-11-29T09:57:23.997Z,82.26
2017-11-29T09:59:51.547Z,82.46
2017-11-29T10:02:19.214Z,81.73
2017-11-29T10:04:46.700Z,82.00
2017-11-29T10:07:14.270Z,81.36
2017-11-29T10:09:41.802Z,81.67
2017-11-29T10:12:09.313Z,81.74
2017-11-29T10:14:36.902Z,81.93
2017-11-29T10:17:04.381Z,81.06
2017-11-29T10:19:31.872Z,81.72
2017-11-29T10:21:59.332Z,82.35
2017-11-29T10:24:26.914Z,82.37
2017-11-29T10:26:54.410Z,82.50
2017-11-29T10:29:21.940Z,82.46
2017-11-29T10:31:49.404Z,82.79
2017-11-29T10:34:19.092Z,83.17
2017-11-29T10:36:46.914Z,83.18
2017-11-29T10:39:14.382Z,84.01
2017-11-29T10:41:41.895Z,83.45
2017-11-29T10:44:09.380Z,83.34
2017-11-29T10:46:37.592Z,83.23
2017-11-29T10:49:05.104Z,84.10
2017-11-29T10:51:32.571Z,83.98
2017-11-29T10:54:00.034Z,84.32
2017-11-29T10:56:27.596Z,84.51
2017-11-29T10:58:55.120Z,84.47
2017-11-29T11:01:22.580Z,84.45
2017-11-29T11:03:50.054Z,84.58
2017-11-29T11:06:17.631Z,84.72
2017-11-29T11:08:45.145Z,84.68
2017-11-29T11:11:12.789Z,84.44
2017-11-29T11:13:40.306Z,84.13
2017-11-29T11:16:07.824Z,84.36
2017-11-29T11:18:36.125Z,84.35
2017-11-29T11:21:03.651Z,84.10
2017-11-29T11:23:31.814Z,83.83
2017-11-29T11:25:59.305Z,83.76
2017-11-29T11:28:26.857Z,84.13
2017-11-29T11:30:54.878Z,84.63
2017-11-29T11:33:22.421Z,84.90
2017-11-29T11:35:49.885Z,84.55
2017-11-29T11:38:17.556Z,85.05
2017-11-29T11:40:45.083Z,85.20
2017-11-29T11:43:12.545Z,84.53
2017-11-29T11:45:40.028Z,84.38
2017-11-29T11:48:07.485Z,84.10
2017-11-29T11:50:35.699Z,83.89
2017-11-29T11:53:03.187Z,82.35
2017-11-29T11:55:30.730Z,82.26
2017-11-29T11:57:58.213Z,81.85
2017-11-29T12:00:25.865Z,82.49
2017-11-29T12:02:53.352Z,82.58
2017-11-29T12:05:20.830Z,82.79
2017-11-29T12:07:48.307Z,82.86
2017-11-29T12:10:17.831Z,82.99
2017-11-29T12:12:45.945Z,82.86
2017-11-29T12:15:13.438Z,83.05
2017-11-29T12:17:40.940Z,83.34
2017-11-29T12:20:08.432Z,83.36
2017-11-29T12:22:37.024Z,82.99
2017-11-29T12:25:04.490Z,82.89
2017-11-29T12:27:31.959Z,83.05
2017-11-29T12:29:59.429Z,82.77
2017-11-29T12:32:26.983Z,83.05
2017-11-29T12:34:54.552Z,83.32
2017-11-29T12:37:22.016Z,83.63
2017-11-29T12:39:49.560Z,84.07
2017-11-29T12:42:17.093Z,84.29
2017-11-29T12:44:44.605Z,84.46
2017-11-29T12:47:12.122Z,84.46
2017-11-29T12:49:51.248Z,84.48
2017-11-29T12:52:18.703Z,84.81
2017-11-29T12:54:46.160Z,84.95
2017-11-29T12:57:13.640Z,85.02
2017-11-29T12:59:41.106Z,85.02
2017-11-29T13:02:08.582Z,84.92
2017-11-29T13:04:36.966Z,84.80
2017-11-29T13:07:04.421Z,84.60
2017-11-29T13:09:31.939Z,84.64
2017-11-29T13:11:59.427Z,84.81
2017-11-29T13:14:26.881Z,84.61
2017-11-29T13:16:54.370Z,84.08
2017-11-29T13:19:21.902Z,84.58
2017-11-29T13:21:49.360Z,84.41
2017-11-29T13:24:16.876Z,84.03
2017-11-29T13:26:44.341Z,84.18
2017-11-29T13:29:11.797Z,84.75
2017-11-29T13:31:39.309Z,84.16
2017-11-29T13:34:06.796Z,84.24
2017-11-29T13:36:34.279Z,84.37
2017-11-29T13:39:01.836Z,84.46
2017-11-29T13:41:29.310Z,84.08
2017-11-29T13:43:56.774Z,84.35
2017-11-29T13:46:24.253Z,84.69
2017-11-29T13:48:54.057Z,84.72
2017-11-29T13:51:21.617Z,84.82
2017-11-29T13:53:49.094Z,84.66
2017-11-29T13:56:16.741Z,84.43
2017-11-29T13:58:44.209Z,84.44
2017-11-29T14:01:11.701Z,84.62
2017-11-29T14:03:39.184Z,84.81
2017-11-29T14:06:06.654Z,84.80
2017-11-29T14:08:34.364Z,84.51
2017-11-29T14:11:01.848Z,84.49
2017-11-29T14:13:29.486Z,84.40
2017-11-29T14:15:56.956Z,84.81
2017-11-29T14:18:24.581Z,84.73
2017-11-29T14:20:52.079Z,84.59
2017-11-29T14:23:19.534Z,84.30
2017-11-29T14:25:47.018Z,84.74
2017-11-29T14:28:16.605Z,84.78
2017-11-29T14:30:44.257Z,84.95
2017-11-29T14:33:11.792Z,85.03
2017-11-29T14:35:39.249Z,85.02
2017-11-29T14:38:06.748Z,85.11
2017-11-29T14:40:37.237Z,84.43
2017-11-29T14:43:04.976Z,84.40
2017-11-29T14:45:32.536Z,84.59
2017-11-29T14:48:00.020Z,84.53
2017-11-29T14:50:27.469Z,84.84
2017-11-29T14:52:54.992Z,84.73
2017-11-29T14:55:22.465Z,84.53
2017-11-29T14:57:49.962Z,84.74
2017-11-29T15:00:18.785Z,84.62
2017-11-29T15:02:46.246Z,84.65
2017-11-29T15:05:13.783Z,84.38
2017-11-29T15:07:41.237Z,84.71
2017-11-29T15:10:08.695Z,84.63
2017-11-29T15:12:36.178Z,84.80
2017-11-29T15:15:03.925Z,84.87
2017-11-29T15:17:31.616Z,84.74
2017-11-29T15:19:59.060Z,84.67
2017-11-29T15:22:27.457Z,84.80
2017-11-29T15:24:54.943Z,84.81
2017-11-29T15:27:22.824Z,85.05
2017-11-29T15:29:50.304Z,85.08
2017-11-29T15:32:17.924Z,85.35
2017-11-29T15:34:45.446Z,85.61
2017-11-29T15:37:12.873Z,85.85
2017-11-29T15:39:40.372Z,85.94
2017-11-29T15:42:07.829Z,86.12
2017-11-29T15:44:39.563Z,86.44
2017-11-29T15:47:07.136Z,86.27
2017-11-29T15:49:34.632Z,86.52
2017-11-29T15:52:02.169Z,86.46
2017-11-29T15:54:30.556Z,86.46
2017-11-29T15:56:58.092Z,86.24
2017-11-29T15:59:25.577Z,86.34
2017-11-29T16:01:53.021Z,86.47
2017-11-29T16:04:21.138Z,86.73
2017-11-29T16:06:50.457Z,86.90
2017-11-29T16:09:18.748Z,86.64
2017-11-29T16:11:46.209Z,86.96
2017-11-29T16:14:13.710Z,87.21
2017-11-29T16:16:41.237Z,87.38
2017-11-29T16:19:08.776Z,87.34
2017-11-29T16:21:36.447Z,87.39
2017-11-29T16:24:04.797Z,87.72
2017-11-29T16:26:32.346Z,87.99
2017-11-29T16:28:59.938Z,88.09
2017-11-29T16:31:27.465Z,88.07
2017-11-29T16:33:54.992Z,88.07
2017-11-29T16:36:22.534Z,88.02
2017-11-29T16:38:50.013Z,88.04
2017-11-29T16:41:17.522Z,87.78
2017-11-29T16:43:45.034Z,87.94
2017-11-29T16:46:12.558Z,87.72
2017-11-29T16:48:40.068Z,87.61
2017-11-29T16:51:07.564Z,87.64
2017-11-29T16:53:35.054Z,87.54
2017-11-29T16:56:02.621Z,87.74
2017-11-29T16:58:30.187Z,87.79
2017-11-29T17:00:57.743Z,87.64
2017-11-29T17:03:25.249Z,87.68
2017-11-29T17:05:52.753Z,87.54
2017-11-29T17:08:20.258Z,88.01
2017-11-29T17:10:47.785Z,88.20
2017-11-29T17:13:15.325Z,87.64
2017-11-29T17:15:43.149Z,87.71
2017-11-29T17:18:10.629Z,88.23
2017-11-29T17:20:38.190Z,88.35
2017-11-29T17:23:05.680Z,88.35
2017-11-29T17:25:33.172Z,88.65
2017-11-29T17:28:00.684Z,89.28
2017-11-29T17:30:29.531Z,89.50
2017-11-29T17:32:57.014Z,89.40
2017-11-29T17:35:24.510Z,89.46
2017-11-29T17:37:52.004Z,89.68
2017-11-29T17:40:19.680Z,89.80
2017-11-29T17:42:47.391Z,89.72
2017-11-29T17:45:15.367Z,89.33
2017-11-29T17:47:42.858Z,90.04
2017-11-29T17:50:10.408Z,89.87
2017-11-29T17:52:38.074Z,89.95
2017-11-29T17:55:05.563Z,90.21
2017-11-29T17:57:33.185Z,90.26
2017-11-29T18:00:00.656Z,90.19
2017-11-29T18:02:28.103Z,90.05
2017-11-29T18:04:55.602Z,90.15
2017-11-29T18:07:23.076Z,90.48
2017-11-29T18:09:50.549Z,90.68
2017-11-29T18:12:18.018Z,90.76
2017-11-29T18:14:45.732Z,90.58
2017-11-29T18:17:13.268Z,90.89
2017-11-29T18:19:40.730Z,90.87
2017-11-29T18:22:08.223Z,91.09
2017-11-29T18:24:35.763Z,91.31
2017-11-29T18:27:03.278Z,91.61
2017-11-29T18:29:30.800Z,91.43
2017-11-29T18:31:58.268Z,91.66
2017-11-29T18:34:25.734Z,91.45
2017-11-29T18:36:53.230Z,91.56
2017-11-29T18:39:21.814Z,91.78
2017-11-29T18:41:49.346Z,91.62
2017-11-29T18:44:18.778Z,91.61
2017-11-29T18:46:46.471Z,91.97
2017-11-29T18:49:14.011Z,92.25
2017-11-29T18:51:41.789Z,92.57
2017-11-29T18:54:09.373Z,92.68
2017-11-29T18:56:39.034Z,92.82
2017-11-29T18:59:06.646Z,92.89
2017-11-29T19:01:34.182Z,92.78
2017-11-29T19:04:01.761Z,92.59
2017-11-29T19:06:29.385Z,92.75
2017-11-29T19:08:56.903Z,92.72
2017-11-29T19:11:24.478Z,92.45
2017-11-29T19:13:51.953Z,92.60
2017-11-29T19:16:19.438Z,92.88
2017-11-29T19:18:47.018Z,93.14
2017-11-29T19:21:14.650Z,93.19
2017-11-29T19:23:42.154Z,93.25
2017-11-29T19:26:09.798Z,93.35
2017-11-29T19:28:39.145Z,93.21
2017-11-29T19:31:06.810Z,93.02
2017-11-29T19:33:34.365Z,92.90
2017-11-29T19:36:01.913Z,92.68
2017-11-29T19:38:29.408Z,92.12
2017-11-29T19:40:56.883Z,91.57
2017-11-29T19:43:24.389Z,91.45
2017-11-29T19:45:51.865Z,91.69
2017-11-29T19:48:19.583Z,91.68
2017-11-29T19:50:47.051Z,91.19
2017-11-29T19:53:14.559Z,91.45
2017-11-29T19:55:42.048Z,91.71
2017-11-29T19:58:09.511Z,92.03
2017-11-29T20:00:37.109Z,92.25
2017-11-29T20:03:04.868Z,92.30
2017-11-29T20:05:32.366Z,92.27
2017-11-29T20:07:59.866Z,92.16
2017-11-29T20:10:27.351Z,92.32
2017-11-29T20:12:54.822Z,92.22
2017-11-29T20:15:22.591Z,92.37
2017-11-29T20:17:50.121Z,92.63
2017-11-29T20:20:19.626Z,92.88
2017-11-29T20:22:47.144Z,92.95
2017-11-29T20:25:14.601Z,92.72
2017-11-29T20:27:42.122Z,92.74
2017-11-29T20:30:09.579Z,92.81
2017-11-29T20:32:37.073Z,92.92
2017-11-29T20:35:04.663Z,92.90
2017-11-29T20:37:32.632Z,92.75
2017-11-29T20:40:00.133Z,92.35
2017-11-29T20:42:27.869Z,91.79
2017-11-29T20:44:55.413Z,91.75
2017-11-29T20:47:23.845Z,91.49
2017-11-29T20:49:51.346Z,91.37
2017-11-29T20:52:25.266Z,91.34
2017-11-29T20:54:52.897Z,91.42
2017-11-29T20:57:23.376Z,91.25
2017-11-29T20:59:50.902Z,90.92
2017-11-29T21:02:18.495Z,91.08
2017-11-29T21:04:46.022Z,91.21
2017-11-29T21:07:13.518Z,91.00
2017-11-29T21:09:40.993Z,90.78
2017-11-29T21:12:08.548Z,91.25
2017-11-29T21:14:36.158Z,90.95
2017-11-29T21:17:03.698Z,91.16
2017-11-29T21:19:31.271Z,91.65
2017-11-29T21:21:58.756Z,91.88
2017-11-29T21:24:26.413Z,91.76
2017-11-29T21:26:54.232Z,91.59
2017-11-29T21:29:21.733Z,91.71
2017-11-29T21:31:49.205Z,91.70
2017-11-29T21:34:17.747Z,91.92
2017-11-29T21:36:51.256Z,91.36
2017-11-29T21:39:23.582Z,91.62
2017-11-29T21:41:51.055Z,91.34
2017-11-29T21:44:18.525Z,91.49
2017-11-29T21:46:46.935Z,91.49
2017-11-29T21:49:14.427Z,91.82
2017-11-29T21:51:41.898Z,92.03
2017-11-29T21:54:09.372Z,91.87
2017-11-29T21:56:36.855Z,91.85
2017-11-29T21:59:04.423Z,91.54
2017-11-29T22:01:33.363Z,91.06
2017-11-29T22:04:01.137Z,91.21
2017-11-29T22:06:29.719Z,91.24
2017-11-29T22:08:57.607Z,91.13
2017-11-29T22:11:25.150Z,91.11
2017-11-29T22:13:54.009Z,90.87
2017-11-29T22:16:22.284Z,90.96
2017-11-29T22:18:51.300Z,91.05
2017-11-29T22:21:18.805Z,91.44
2017-11-29T22:23:46.294Z,91.31
2017-11-29T22:26:13.785Z,91.13
2017-11-29T22:28:41.418Z,91.41
2017-11-29T22:31:08.874Z,91.59
2017-11-29T22:33:36.352Z,91.41
2017-11-29T22:36:03.821Z,91.51
2017-11-29T22:38:31.774Z,91.33
2017-11-29T22:40:59.299Z,91.53
2017-11-29T22:43:26.761Z,91.37
2017-11-29T22:45:54.253Z,91.30
2017-11-29T22:48:21.758Z,91.38
2017-11-29T22:50:49.223Z,91.52
2017-11-29T22:53:16.701Z,91.71
2017-11-29T22:55:44.177Z,91.42
2017-11-29T22:58:11.628Z,91.21
2017-11-29T23:00:39.350Z,91.19
2017-11-29T23:03:06.847Z,91.19
2017-11-29T23:05:34.367Z,91.30
2017-11-29T23:08:01.981Z,91.64
2017-11-29T23:10:30.084Z,91.51
2017-11-29T23:12:57.563Z,91.55
2017-11-29T23:15:25.055Z,91.35
2017-11-29T23:17:52.520Z,91.41
2017-11-29T23:20:20.049Z,91.35
2017-11-29T23:22:48.516Z,91.37
2017-11-29T23:25:16.017Z,90.87
2017-11-29T23:27:43.486Z,90.88
2017-11-29T23:30:10.967Z,91.08
2017-11-29T23:32:38.465Z,90.96
2017-11-29T23:35:05.920Z,90.91
2017-11-29T23:37:33.379Z,91.09
2017-11-29T23:40:00.859Z,90.91
2017-11-29T23:42:29.355Z,90.97
2017-11-29T23:44:56.841Z,91.15
2017-11-29T23:47:24.320Z,91.43
2017-11-29T23:49:51.790Z,91.00
2017-11-29T23:52:19.272Z,90.97
2017-11-29T23:54:48.060Z,91.34
2017-11-29T23:57:15.640Z,91.31
2017-11-29T23:59:43.135Z,91.04
